createdAt,value
2015-02-10T00:00:05.665Z,102093
2015-02-10T00:00:24.071Z,102098
2015-02-10T00:00:42.477Z,102087
2015-02-10T00:01:00.901Z,102090
2015-02-10T00:01:19.307Z,102093
2015-02-10T00:01:37.729Z,102087
2015-02-10T00:01:56.154Z,102090
2015-02-10T00:02:14.560Z,102090
2015-02-10T00:02:32.982Z,102090
2015-02-10T00:02:51.406Z,102092
2015-02-10T00:03:09.812Z,102089
2015-02-10T00:03:28.234Z,102098
2015-02-10T00:03:46.641Z,102086
2015-02-10T00:04:05.065Z,102078
2015-02-10T00:04:23.472Z,102089
2015-02-10T00:04:41.894Z,102092
2015-02-10T00:05:00.316Z,102087
2015-02-10T00:05:18.723Z,102078
2015-02-10T00:05:37.145Z,102095
2015-02-10T00:05:55.554Z,102086
2015-02-10T00:06:13.976Z,102095
2015-02-10T00:06:32.382Z,102095
2015-02-10T00:06:50.804Z,102083
2015-02-10T00:07:09.213Z,102089
2015-02-10T00:07:27.635Z,102092
2015-02-10T00:07:46.057Z,102075
2015-02-10T00:08:04.463Z,102092
2015-02-10T00:08:22.888Z,102098
2015-02-10T00:08:41.294Z,102086
2015-02-10T00:08:59.716Z,102092
2015-02-10T00:09:18.123Z,102092
2015-02-10T00:09:36.545Z,102089
2015-02-10T00:09:54.951Z,102080
2015-02-10T00:10:13.373Z,102086
2015-02-10T00:10:31.783Z,102098
2015-02-10T00:10:50.204Z,102080
2015-02-10T00:11:08.626Z,102089
2015-02-10T00:11:27.036Z,102083
2015-02-10T00:11:45.317Z,102086
2015-02-10T00:12:03.567Z,102089
2015-02-10T00:12:21.989Z,102088
2015-02-10T00:12:40.413Z,102097
2015-02-10T00:12:58.819Z,102091
2015-02-10T00:13:17.241Z,102080
2015-02-10T00:13:35.650Z,102083
2015-02-10T00:13:54.072Z,102085
2015-02-10T00:14:12.494Z,102080
2015-02-10T00:14:30.900Z,102091
2015-02-10T00:14:49.324Z,102088
2015-02-10T00:15:07.730Z,102086
2015-02-10T00:15:26.136Z,102094
2015-02-10T00:15:44.560Z,102085
2015-02-10T00:16:02.966Z,102088
2015-02-10T00:16:21.388Z,102088
2015-02-10T00:16:39.795Z,102082
2015-02-10T00:16:58.218Z,102076
2015-02-10T00:17:16.625Z,102079
2015-02-10T00:17:35.047Z,102085
2015-02-10T00:17:53.457Z,102071
2015-02-10T00:18:11.879Z,102079
2015-02-10T00:18:30.285Z,102071
2015-02-10T00:18:48.707Z,102088
2015-02-10T00:19:07.115Z,102074
2015-02-10T00:19:25.537Z,102073
2015-02-10T00:19:43.943Z,102074
2015-02-10T00:20:02.368Z,102085
2015-02-10T00:20:20.790Z,102082
2015-02-10T00:20:39.212Z,102073
2015-02-10T00:20:57.618Z,102076
2015-02-10T00:21:16.042Z,102070
2015-02-10T00:21:34.448Z,102082
2015-02-10T00:21:52.854Z,102067
2015-02-10T00:22:11.278Z,102076
2015-02-10T00:22:29.700Z,102076
2015-02-10T00:22:48.122Z,102082
2015-02-10T00:23:06.528Z,102076
2015-02-10T00:23:24.937Z,102067
2015-02-10T00:23:43.358Z,102070
2015-02-10T00:24:01.780Z,102076
2015-02-10T00:24:20.190Z,102070
2015-02-10T00:24:38.611Z,102076
2015-02-10T00:24:57.018Z,102070
2015-02-10T00:25:15.440Z,102070
2015-02-10T00:25:33.864Z,102085
2015-02-10T00:25:52.271Z,102088
2015-02-10T00:26:10.677Z,102076
2015-02-10T00:26:29.101Z,102073
2015-02-10T00:26:47.507Z,102076
2015-02-10T00:27:05.929Z,102076
2015-02-10T00:27:24.335Z,102073
2015-02-10T00:27:42.759Z,102073
2015-02-10T00:28:01.165Z,102073
2015-02-10T00:28:19.587Z,102064
2015-02-10T00:28:37.996Z,102073
2015-02-10T00:28:56.418Z,102076
2015-02-10T00:29:14.825Z,102070
2015-02-10T00:29:33.233Z,102079
2015-02-10T00:29:51.655Z,102085
2015-02-10T00:30:10.077Z,102082
2015-02-10T00:30:28.483Z,102073
2015-02-10T00:30:46.908Z,102079
2015-02-10T00:31:05.330Z,102079
2015-02-10T00:31:23.736Z,102079
2015-02-10T00:31:42.145Z,102070
2015-02-10T00:32:00.567Z,102079
2015-02-10T00:32:18.973Z,102081
2015-02-10T00:32:37.397Z,102084
2015-02-10T00:32:55.803Z,102082
2015-02-10T00:33:14.210Z,102079
2015-02-10T00:33:32.631Z,102067
2015-02-10T00:33:51.040Z,102087
2015-02-10T00:34:09.462Z,102079
2015-02-10T00:34:27.868Z,102082
2015-02-10T00:34:46.292Z,102082
2015-02-10T00:35:04.714Z,102079
2015-02-10T00:35:23.120Z,102084
2015-02-10T00:35:41.529Z,102082
2015-02-10T00:35:59.951Z,102085
2015-02-10T00:36:18.357Z,102082
2015-02-10T00:36:36.781Z,102093
2015-02-10T00:36:55.203Z,102091
2015-02-10T00:37:13.609Z,102090
2015-02-10T00:37:32.031Z,102085
2015-02-10T00:37:50.439Z,102093
2015-02-10T00:38:08.861Z,102093
2015-02-10T00:38:27.267Z,102085
2015-02-10T00:38:45.692Z,102090
2015-02-10T00:39:04.099Z,102090
2015-02-10T00:39:22.520Z,102076
2015-02-10T00:39:40.929Z,102090
2015-02-10T00:39:59.351Z,102087
2015-02-10T00:40:17.757Z,102087
2015-02-10T00:40:36.165Z,102081
2015-02-10T00:40:54.587Z,102093
2015-02-10T00:41:13.009Z,102078
2015-02-10T00:41:31.415Z,102087
2015-02-10T00:41:49.839Z,102093
2015-02-10T00:42:08.245Z,102081
2015-02-10T00:42:26.667Z,102093
2015-02-10T00:42:45.076Z,102081
2015-02-10T00:43:03.498Z,102081
2015-02-10T00:43:21.904Z,102082
2015-02-10T00:43:40.326Z,102084
2015-02-10T00:43:58.736Z,102093
2015-02-10T00:44:17.173Z,102084
2015-02-10T00:44:35.564Z,102084
2015-02-10T00:44:53.988Z,102090
2015-02-10T00:45:12.394Z,102087
2015-02-10T00:45:30.816Z,102081
2015-02-10T00:45:49.222Z,102090
2015-02-10T00:46:07.630Z,102096
2015-02-10T00:46:26.052Z,102090
2015-02-10T00:46:44.474Z,102084
2015-02-10T00:47:02.882Z,102084
2015-02-10T00:47:21.304Z,102087
2015-02-10T00:47:39.710Z,102087
2015-02-10T00:47:58.132Z,102078
2015-02-10T00:48:16.557Z,102090
2015-02-10T00:48:34.963Z,102093
2015-02-10T00:48:53.385Z,102081
2015-02-10T00:49:11.793Z,102076
2015-02-10T00:49:30.215Z,102090
2015-02-10T00:49:48.622Z,102078
2015-02-10T00:50:07.046Z,102070
2015-02-10T00:50:25.453Z,102090
2015-02-10T00:50:43.875Z,102081
2015-02-10T00:51:02.281Z,102075
2015-02-10T00:51:20.705Z,102084
2015-02-10T00:51:39.127Z,102084
2015-02-10T00:51:57.533Z,102079
2015-02-10T00:52:15.942Z,102073
2015-02-10T00:52:34.364Z,102076
2015-02-10T00:52:52.770Z,102084
2015-02-10T00:53:11.192Z,102081
2015-02-10T00:53:29.616Z,102073
2015-02-10T00:53:48.038Z,102073
2015-02-10T00:54:06.444Z,102075
2015-02-10T00:54:24.869Z,102070
2015-02-10T00:54:43.275Z,102075
2015-02-10T00:55:01.697Z,102075
2015-02-10T00:55:20.119Z,102072
2015-02-10T00:55:38.527Z,102081
2015-02-10T00:55:56.949Z,102078
2015-02-10T00:56:15.371Z,102067
2015-02-10T00:56:33.779Z,102078
2015-02-10T00:56:52.201Z,102067
2015-02-10T00:57:10.607Z,102078
2015-02-10T00:57:29.014Z,102075
2015-02-10T00:57:47.437Z,102072
2015-02-10T00:58:05.857Z,102081
2015-02-10T00:58:24.268Z,102087
2015-02-10T00:58:42.674Z,102075
2015-02-10T00:59:01.091Z,102069
2015-02-10T00:59:19.503Z,102078
2015-02-10T00:59:37.919Z,102081
2015-02-10T00:59:56.322Z,102075
2015-02-10T01:00:14.737Z,102072
2015-02-10T01:00:33.159Z,102075
2015-02-10T01:00:51.599Z,102081
2015-02-10T01:01:10.004Z,102078
2015-02-10T01:01:28.410Z,102078
2015-02-10T01:01:46.832Z,102081
2015-02-10T01:02:05.239Z,102063
2015-02-10T01:02:23.661Z,102078
2015-02-10T01:02:42.068Z,102072
2015-02-10T01:03:00.492Z,102078
2015-02-10T01:03:18.742Z,102078
2015-02-10T01:03:37.164Z,102075
2015-02-10T01:03:55.571Z,102078
2015-02-10T01:04:13.995Z,102081
2015-02-10T01:04:32.402Z,102080
2015-02-10T01:04:50.808Z,102078
2015-02-10T01:05:09.233Z,102083
2015-02-10T01:05:27.639Z,102089
2015-02-10T01:05:46.077Z,102077
2015-02-10T01:06:04.483Z,102071
2015-02-10T01:06:22.735Z,102074
2015-02-10T01:06:41.157Z,102077
2015-02-10T01:06:59.563Z,102074
2015-02-10T01:07:17.987Z,102077
2015-02-10T01:07:36.393Z,102086
2015-02-10T01:07:54.815Z,102080
2015-02-10T01:08:13.224Z,102080
2015-02-10T01:08:31.646Z,102089
2015-02-10T01:08:50.068Z,102083
2015-02-10T01:09:08.474Z,102083
2015-02-10T01:09:26.898Z,102080
2015-02-10T01:09:45.304Z,102083
2015-02-10T01:10:03.726Z,102075
2015-02-10T01:10:22.148Z,102083
2015-02-10T01:10:40.557Z,102092
2015-02-10T01:10:58.979Z,102089
2015-02-10T01:11:17.385Z,102083
2015-02-10T01:11:35.809Z,102083
2015-02-10T01:11:54.216Z,102086
2015-02-10T01:12:12.637Z,102095
2015-02-10T01:12:31.059Z,102086
2015-02-10T01:12:49.469Z,102092
2015-02-10T01:13:07.890Z,102095
2015-02-10T01:13:26.297Z,102098
2015-02-10T01:13:44.721Z,102083
2015-02-10T01:14:03.127Z,102086
2015-02-10T01:14:21.549Z,102098
2015-02-10T01:14:39.955Z,102077
2015-02-10T01:14:58.364Z,102083
2015-02-10T01:15:16.786Z,102089
2015-02-10T01:15:35.192Z,102089
2015-02-10T01:15:53.616Z,102092
2015-02-10T01:16:12.022Z,102089
2015-02-10T01:16:30.444Z,102095
2015-02-10T01:16:48.851Z,102092
2015-02-10T01:17:07.274Z,102086
2015-02-10T01:17:25.681Z,102098
2015-02-10T01:17:44.103Z,102098
2015-02-10T01:18:02.512Z,102086
2015-02-10T01:18:20.934Z,102092
2015-02-10T01:18:39.356Z,102098
2015-02-10T01:18:57.762Z,102095
2015-02-10T01:19:16.171Z,102092
2015-02-10T01:19:34.593Z,102095
2015-02-10T01:19:53.015Z,102098
2015-02-10T01:20:11.423Z,102104
2015-02-10T01:20:29.845Z,102101
2015-02-10T01:20:48.267Z,102103
2015-02-10T01:21:06.673Z,102100
2015-02-10T01:21:25.082Z,102095
2015-02-10T01:21:43.504Z,102095
2015-02-10T01:22:01.910Z,102101
2015-02-10T01:22:20.334Z,102092
2015-02-10T01:22:38.741Z,102104
2015-02-10T01:22:57.162Z,102104
2015-02-10T01:23:15.569Z,102098
2015-02-10T01:23:33.993Z,102098
2015-02-10T01:23:52.399Z,102107
2015-02-10T01:24:10.821Z,102104
2015-02-10T01:24:29.230Z,102095
2015-02-10T01:24:47.652Z,102101
2015-02-10T01:25:06.058Z,102101
2015-02-10T01:25:24.480Z,102095
2015-02-10T01:25:42.905Z,102098
2015-02-10T01:26:01.155Z,102095
2015-02-10T01:26:19.577Z,102106
2015-02-10T01:26:38.001Z,102103
2015-02-10T01:26:56.407Z,102097
2015-02-10T01:27:14.829Z,102088
2015-02-10T01:27:33.235Z,102100
2015-02-10T01:27:51.660Z,102094
2015-02-10T01:28:10.066Z,102100
2015-02-10T01:28:28.488Z,102094
2015-02-10T01:28:46.895Z,102094
2015-02-10T01:29:05.317Z,102100
2015-02-10T01:29:23.723Z,102094
2015-02-10T01:29:42.145Z,102100
2015-02-10T01:30:00.554Z,102103
2015-02-10T01:30:18.976Z,102094
2015-02-10T01:30:37.383Z,102100
2015-02-10T01:30:55.807Z,102103
2015-02-10T01:31:14.214Z,102097
2015-02-10T01:31:32.636Z,102097
2015-02-10T01:31:51.057Z,102103
2015-02-10T01:32:09.481Z,102106
2015-02-10T01:32:27.888Z,102094
2015-02-10T01:32:46.294Z,102109
2015-02-10T01:33:04.719Z,102103
2015-02-10T01:33:23.141Z,102109
2015-02-10T01:33:41.547Z,102100
2015-02-10T01:33:59.953Z,102115
2015-02-10T01:34:18.377Z,102109
2015-02-10T01:34:36.783Z,102106
2015-02-10T01:34:55.205Z,102103
2015-02-10T01:35:13.613Z,102109
2015-02-10T01:35:32.035Z,102109
2015-02-10T01:35:50.441Z,102114
2015-02-10T01:36:08.866Z,102106
2015-02-10T01:36:27.273Z,102100
2015-02-10T01:36:45.694Z,102109
2015-02-10T01:37:04.101Z,102100
2015-02-10T01:37:22.525Z,102103
2015-02-10T01:37:40.946Z,102106
2015-02-10T01:37:59.353Z,102109
2015-02-10T01:38:17.778Z,102106
2015-02-10T01:38:36.184Z,102103
2015-02-10T01:38:54.606Z,102097
2015-02-10T01:39:13.028Z,102109
2015-02-10T01:39:31.436Z,102100
2015-02-10T01:39:49.858Z,102109
2015-02-10T01:40:08.264Z,102100
2015-02-10T01:40:26.689Z,102109
2015-02-10T01:40:45.095Z,102097
2015-02-10T01:41:03.517Z,102103
2015-02-10T01:41:21.923Z,102097
2015-02-10T01:41:40.347Z,102097
2015-02-10T01:41:58.769Z,102097
2015-02-10T01:42:17.175Z,102103
2015-02-10T01:42:35.599Z,102106
2015-02-10T01:42:54.005Z,102094
2015-02-10T01:43:12.427Z,102100
2015-02-10T01:43:30.833Z,102103
2015-02-10T01:43:49.258Z,102100
2015-02-10T01:44:07.665Z,102100
2015-02-10T01:44:26.086Z,102100
2015-02-10T01:44:44.510Z,102091
2015-02-10T01:45:02.917Z,102100
2015-02-10T01:45:21.338Z,102100
2015-02-10T01:45:39.748Z,102103
2015-02-10T01:45:58.185Z,102103
2015-02-10T01:46:16.591Z,102100
2015-02-10T01:46:35.013Z,102097
2015-02-10T01:46:53.422Z,102097
2015-02-10T01:47:11.828Z,102102
2015-02-10T01:47:30.250Z,102097
2015-02-10T01:47:48.675Z,102097
2015-02-10T01:48:07.081Z,102097
2015-02-10T01:48:25.503Z,102105
2015-02-10T01:48:43.909Z,102094
2015-02-10T01:49:02.333Z,102106
2015-02-10T01:49:20.739Z,102097
2015-02-10T01:49:39.161Z,102106
2015-02-10T01:49:57.570Z,102094
2015-02-10T01:50:15.992Z,102106
2015-02-10T01:50:34.414Z,102100
2015-02-10T01:50:52.852Z,102103
2015-02-10T01:51:11.243Z,102106
2015-02-10T01:51:29.665Z,102094
2015-02-10T01:51:48.071Z,102088
2015-02-10T01:52:06.496Z,102109
2015-02-10T01:52:24.902Z,102100
2015-02-10T01:52:43.324Z,102097
2015-02-10T01:53:01.733Z,102097
2015-02-10T01:53:20.155Z,102108
2015-02-10T01:53:38.577Z,102097
2015-02-10T01:53:56.985Z,102091
2015-02-10T01:54:15.392Z,102100
2015-02-10T01:54:33.814Z,102106
2015-02-10T01:54:52.235Z,102106
2015-02-10T01:55:10.644Z,102109
2015-02-10T01:55:29.050Z,102103
2015-02-10T01:55:47.472Z,102103
2015-02-10T01:56:05.881Z,102105
2015-02-10T01:56:24.303Z,102105
2015-02-10T01:56:42.709Z,102103
2015-02-10T01:57:01.131Z,102097
2015-02-10T01:57:19.540Z,102111
2015-02-10T01:57:37.962Z,102100
2015-02-10T01:57:56.384Z,102102
2015-02-10T01:58:14.792Z,102108
2015-02-10T01:58:33.214Z,102102
2015-02-10T01:58:51.620Z,102102
2015-02-10T01:59:10.044Z,102108
2015-02-10T01:59:28.451Z,102111
2015-02-10T01:59:46.857Z,102105
2015-02-10T02:00:05.279Z,102108
2015-02-10T02:00:23.703Z,102105
2015-02-10T02:00:42.109Z,102108
2015-02-10T02:01:00.531Z,102102
2015-02-10T02:01:18.940Z,102102
2015-02-10T02:01:37.362Z,102114
2015-02-10T02:01:55.784Z,102108
2015-02-10T02:02:14.190Z,102120
2015-02-10T02:02:32.614Z,102111
2015-02-10T02:02:51.036Z,102111
2015-02-10T02:03:09.442Z,102108
2015-02-10T02:03:27.866Z,102105
2015-02-10T02:03:46.272Z,102102
2015-02-10T02:04:04.694Z,102102
2015-02-10T02:04:23.100Z,102102
2015-02-10T02:04:41.525Z,102111
2015-02-10T02:04:59.947Z,102109
2015-02-10T02:05:18.353Z,102097
2015-02-10T02:05:36.761Z,102097
2015-02-10T02:05:55.183Z,102105
2015-02-10T02:06:13.590Z,102096
2015-02-10T02:06:32.013Z,102105
2015-02-10T02:06:50.435Z,102102
2015-02-10T02:07:08.842Z,102099
2015-02-10T02:07:27.248Z,102108
2015-02-10T02:07:45.674Z,102102
2015-02-10T02:08:04.096Z,102111
2015-02-10T02:08:22.502Z,102102
2015-02-10T02:08:40.925Z,102105
2015-02-10T02:08:59.331Z,102111
2015-02-10T02:09:17.737Z,102099
2015-02-10T02:09:36.162Z,102105
2015-02-10T02:09:54.584Z,102102
2015-02-10T02:10:12.990Z,102102
2015-02-10T02:10:31.412Z,102108
2015-02-10T02:10:49.836Z,102099
2015-02-10T02:11:08.258Z,102096
2015-02-10T02:11:26.664Z,102102
2015-02-10T02:11:45.072Z,102108
2015-02-10T02:12:03.494Z,102108
2015-02-10T02:12:21.900Z,102099
2015-02-10T02:12:40.322Z,102105
2015-02-10T02:12:58.732Z,102111
2015-02-10T02:13:17.138Z,102111
2015-02-10T02:13:35.560Z,102108
2015-02-10T02:13:53.968Z,102102
2015-02-10T02:14:12.390Z,102105
2015-02-10T02:14:30.796Z,102102
2015-02-10T02:14:49.221Z,102108
2015-02-10T02:15:07.627Z,102105
2015-02-10T02:15:26.049Z,102114
2015-02-10T02:15:44.455Z,102108
2015-02-10T02:16:02.880Z,102108
2015-02-10T02:16:21.286Z,102114
2015-02-10T02:16:39.708Z,102111
2015-02-10T02:16:58.117Z,102114
2015-02-10T02:17:16.538Z,102120
2015-02-10T02:17:34.945Z,102117
2015-02-10T02:17:53.367Z,102114
2015-02-10T02:18:11.775Z,102117
2015-02-10T02:18:30.181Z,102114
2015-02-10T02:18:48.603Z,102114
2015-02-10T02:19:07.011Z,102117
2015-02-10T02:19:25.433Z,102114
2015-02-10T02:19:43.839Z,102111
2015-02-10T02:20:02.261Z,102117
2015-02-10T02:20:20.686Z,102117
2015-02-10T02:20:39.092Z,102114
2015-02-10T02:20:57.514Z,102117
2015-02-10T02:21:15.939Z,102117
2015-02-10T02:21:34.345Z,102127
2015-02-10T02:21:52.767Z,102125
2015-02-10T02:22:11.173Z,102120
2015-02-10T02:22:29.582Z,102119
2015-02-10T02:22:48.004Z,102119
2015-02-10T02:23:06.425Z,102116
2015-02-10T02:23:24.850Z,102113
2015-02-10T02:23:43.257Z,102116
2015-02-10T02:24:01.663Z,102122
2015-02-10T02:24:20.085Z,102108
2015-02-10T02:24:38.493Z,102114
2015-02-10T02:24:56.915Z,102127
2015-02-10T02:25:15.337Z,102122
2015-02-10T02:25:33.762Z,102127
2015-02-10T02:25:52.168Z,102122
2015-02-10T02:26:10.574Z,102108
2015-02-10T02:26:28.980Z,102119
2015-02-10T02:26:47.404Z,102110
2015-02-10T02:27:05.654Z,102116
2015-02-10T02:27:24.076Z,102110
2015-02-10T02:27:42.501Z,102122
2015-02-10T02:28:00.907Z,102108
2015-02-10T02:28:19.313Z,102119
2015-02-10T02:28:37.736Z,102119
2015-02-10T02:28:56.143Z,102116
2015-02-10T02:29:14.564Z,102116
2015-02-10T02:29:32.986Z,102116
2015-02-10T02:29:51.411Z,102113
2015-02-10T02:30:09.817Z,102113
2015-02-10T02:30:28.239Z,102116
2015-02-10T02:30:46.649Z,102122
2015-02-10T02:31:05.070Z,102113
2015-02-10T02:31:23.492Z,102116
2015-02-10T02:31:41.901Z,102116
2015-02-10T02:32:00.307Z,102110
2015-02-10T02:32:18.729Z,102113
2015-02-10T02:32:37.135Z,102116
2015-02-10T02:32:55.560Z,102119
2015-02-10T02:33:13.982Z,102127
2015-02-10T02:33:32.388Z,102108
2015-02-10T02:33:50.810Z,102119
2015-02-10T02:34:09.218Z,102122
2015-02-10T02:34:27.640Z,102119
2015-02-10T02:34:46.046Z,102122
2015-02-10T02:35:04.470Z,102119
2015-02-10T02:35:22.876Z,102105
2015-02-10T02:35:41.298Z,102110
2015-02-10T02:35:59.704Z,102116
2015-02-10T02:36:18.129Z,102116
2015-02-10T02:36:36.551Z,102113
2015-02-10T02:36:54.957Z,102119
2015-02-10T02:37:13.367Z,102102
2015-02-10T02:37:31.789Z,102116
2015-02-10T02:37:50.195Z,102122
2015-02-10T02:38:08.617Z,102122
2015-02-10T02:38:27.041Z,102119
2015-02-10T02:38:45.447Z,102130
2015-02-10T02:39:03.869Z,102127
2015-02-10T02:39:22.294Z,102122
2015-02-10T02:39:40.700Z,102127
2015-02-10T02:39:59.122Z,102119
2015-02-10T02:40:17.528Z,102127
2015-02-10T02:40:35.952Z,102119
2015-02-10T02:40:54.358Z,102116
2015-02-10T02:41:12.780Z,102130
2015-02-10T02:41:31.204Z,102116
2015-02-10T02:41:49.610Z,102122
2015-02-10T02:42:08.016Z,102119
2015-02-10T02:42:26.438Z,102130
2015-02-10T02:42:44.862Z,102127
2015-02-10T02:43:03.268Z,102130
2015-02-10T02:43:21.675Z,102133
2015-02-10T02:43:40.099Z,102127
2015-02-10T02:43:58.521Z,102122
2015-02-10T02:44:16.928Z,102133
2015-02-10T02:44:35.349Z,102119
2015-02-10T02:44:53.758Z,102130
2015-02-10T02:45:12.180Z,102130
2015-02-10T02:45:30.586Z,102138
2015-02-10T02:45:49.011Z,102122
2015-02-10T02:46:07.417Z,102135
2015-02-10T02:46:25.839Z,102132
2015-02-10T02:46:44.245Z,102138
2015-02-10T02:47:02.670Z,102133
2015-02-10T02:47:21.076Z,102122
2015-02-10T02:47:39.498Z,102127
2015-02-10T02:47:57.906Z,102132
2015-02-10T02:48:16.328Z,102127
2015-02-10T02:48:34.750Z,102136
2015-02-10T02:48:53.156Z,102130
2015-02-10T02:49:11.408Z,102136
2015-02-10T02:49:29.830Z,102130
2015-02-10T02:49:48.252Z,102127
2015-02-10T02:50:06.677Z,102135
2015-02-10T02:50:25.083Z,102135
2015-02-10T02:50:43.505Z,102138
2015-02-10T02:51:01.943Z,102135
2015-02-10T02:51:20.336Z,102138
2015-02-10T02:51:38.758Z,102141
2015-02-10T02:51:57.164Z,102132
2015-02-10T02:52:15.588Z,102138
2015-02-10T02:52:34.010Z,102135
2015-02-10T02:52:52.416Z,102135
2015-02-10T02:53:10.854Z,102135
2015-02-10T02:53:29.246Z,102132
2015-02-10T02:53:47.668Z,102132
2015-02-10T02:54:06.090Z,102141
2015-02-10T02:54:24.515Z,102138
2015-02-10T02:54:42.921Z,102138
2015-02-10T02:55:01.328Z,102138
2015-02-10T02:55:19.749Z,102126
2015-02-10T02:55:38.173Z,102138
2015-02-10T02:55:56.580Z,102138
2015-02-10T02:56:15.001Z,102132
2015-02-10T02:56:33.411Z,102138
2015-02-10T02:56:51.833Z,102129
2015-02-10T02:57:10.254Z,102127
2015-02-10T02:57:28.661Z,102132
2015-02-10T02:57:47.069Z,102138
2015-02-10T02:58:05.491Z,102133
2015-02-10T02:58:23.897Z,102138
2015-02-10T02:58:42.322Z,102135
2015-02-10T02:59:00.744Z,102132
2015-02-10T02:59:19.150Z,102136
2015-02-10T02:59:37.556Z,102135
2015-02-10T02:59:55.981Z,102132
2015-02-10T03:00:14.387Z,102135
2015-02-10T03:00:32.809Z,102138
2015-02-10T03:00:51.218Z,102132
2015-02-10T03:01:09.639Z,102135
2015-02-10T03:01:28.046Z,102132
2015-02-10T03:01:46.468Z,102138
2015-02-10T03:02:04.876Z,102138
2015-02-10T03:02:23.298Z,102129
2015-02-10T03:02:41.704Z,102132
2015-02-10T03:03:00.129Z,102144
2015-02-10T03:03:18.535Z,102129
2015-02-10T03:03:36.957Z,102132
2015-02-10T03:03:55.363Z,102126
2015-02-10T03:04:13.787Z,102129
2015-02-10T03:04:32.193Z,102126
2015-02-10T03:04:50.615Z,102135
2015-02-10T03:05:09.040Z,102138
2015-02-10T03:05:27.462Z,102130
2015-02-10T03:05:45.868Z,102135
2015-02-10T03:06:04.274Z,102138
2015-02-10T03:06:22.698Z,102132
2015-02-10T03:06:41.105Z,102141
2015-02-10T03:06:59.526Z,102132
2015-02-10T03:07:17.936Z,102132
2015-02-10T03:07:36.373Z,102135
2015-02-10T03:07:54.779Z,102135
2015-02-10T03:08:13.186Z,102141
2015-02-10T03:08:31.610Z,102141
2015-02-10T03:08:50.016Z,102130
2015-02-10T03:09:08.438Z,102144
2015-02-10T03:09:26.847Z,102138
2015-02-10T03:09:45.269Z,102135
2015-02-10T03:10:03.675Z,102130
2015-02-10T03:10:22.113Z,102135
2015-02-10T03:10:40.505Z,102138
2015-02-10T03:10:58.927Z,102135
2015-02-10T03:11:17.333Z,102135
2015-02-10T03:11:35.757Z,102135
2015-02-10T03:11:54.163Z,102129
2015-02-10T03:12:12.585Z,102126
2015-02-10T03:12:30.992Z,102132
2015-02-10T03:12:49.416Z,102141
2015-02-10T03:13:07.838Z,102135
2015-02-10T03:13:26.245Z,102141
2015-02-10T03:13:44.668Z,102141
2015-02-10T03:14:03.090Z,102138
2015-02-10T03:14:21.512Z,102132
2015-02-10T03:14:39.918Z,102135
2015-02-10T03:14:58.328Z,102138
2015-02-10T03:15:16.750Z,102132
2015-02-10T03:15:35.171Z,102141
2015-02-10T03:15:53.581Z,102138
2015-02-10T03:16:12.003Z,102135
2015-02-10T03:16:30.409Z,102135
2015-02-10T03:16:48.815Z,102144
2015-02-10T03:17:07.239Z,102147
2015-02-10T03:17:25.661Z,102144
2015-02-10T03:17:44.067Z,102141
2015-02-10T03:18:02.491Z,102132
2015-02-10T03:18:20.897Z,102147
2015-02-10T03:18:39.303Z,102147
2015-02-10T03:18:57.725Z,102144
2015-02-10T03:19:16.135Z,102153
2015-02-10T03:19:34.556Z,102135
2015-02-10T03:19:52.963Z,102132
2015-02-10T03:20:11.388Z,102135
2015-02-10T03:20:29.794Z,102147
2015-02-10T03:20:48.216Z,102138
2015-02-10T03:21:06.638Z,102138
2015-02-10T03:21:25.046Z,102144
2015-02-10T03:21:43.483Z,102141
2015-02-10T03:22:01.874Z,102135
2015-02-10T03:22:20.298Z,102147
2015-02-10T03:22:38.720Z,102147
2015-02-10T03:22:57.126Z,102132
2015-02-10T03:23:15.548Z,102144
2015-02-10T03:23:33.957Z,102144
2015-02-10T03:23:52.379Z,102138
2015-02-10T03:24:10.785Z,102147
2015-02-10T03:24:29.053Z,102144
2015-02-10T03:24:47.459Z,102141
2015-02-10T03:25:05.881Z,102150
2015-02-10T03:25:24.287Z,102144
2015-02-10T03:25:42.696Z,102147
2015-02-10T03:26:01.118Z,102150
2015-02-10T03:26:19.540Z,102147
2015-02-10T03:26:37.965Z,102150
2015-02-10T03:26:56.371Z,102149
2015-02-10T03:27:14.793Z,102144
2015-02-10T03:27:33.199Z,102147
2015-02-10T03:27:51.622Z,102152
2015-02-10T03:28:10.029Z,102146
2015-02-10T03:28:28.450Z,102152
2015-02-10T03:28:46.860Z,102146
2015-02-10T03:29:05.266Z,102155
2015-02-10T03:29:23.688Z,102152
2015-02-10T03:29:42.094Z,102152
2015-02-10T03:30:00.535Z,102146
2015-02-10T03:30:18.941Z,102149
2015-02-10T03:30:37.363Z,102152
2015-02-10T03:30:55.772Z,102152
2015-02-10T03:31:14.194Z,102164
2015-02-10T03:31:32.600Z,102155
2015-02-10T03:31:51.022Z,102153
2015-02-10T03:32:09.430Z,102155
2015-02-10T03:32:27.852Z,102155
2015-02-10T03:32:46.258Z,102152
2015-02-10T03:33:04.682Z,102152
2015-02-10T03:33:23.088Z,102141
2015-02-10T03:33:41.510Z,102155
2015-02-10T03:33:59.917Z,102155
2015-02-10T03:34:18.340Z,102152
2015-02-10T03:34:36.747Z,102158
2015-02-10T03:34:55.169Z,102155
2015-02-10T03:35:13.578Z,102149
2015-02-10T03:35:32.000Z,102155
2015-02-10T03:35:50.406Z,102152
2015-02-10T03:36:08.828Z,102152
2015-02-10T03:36:27.237Z,102155
2015-02-10T03:36:45.659Z,102143
2015-02-10T03:37:04.065Z,102149
2015-02-10T03:37:22.489Z,102144
2015-02-10T03:37:40.911Z,102149
2015-02-10T03:37:59.317Z,102149
2015-02-10T03:38:17.755Z,102144
2015-02-10T03:38:36.148Z,102149
2015-02-10T03:38:54.570Z,102147
2015-02-10T03:39:12.992Z,102146
2015-02-10T03:39:31.400Z,102152
2015-02-10T03:39:49.822Z,102144
2015-02-10T03:40:08.228Z,102152
2015-02-10T03:40:26.637Z,102158
2015-02-10T03:40:45.059Z,102155
2015-02-10T03:41:03.465Z,102146
2015-02-10T03:41:21.887Z,102152
2015-02-10T03:41:40.295Z,102143
2015-02-10T03:41:58.717Z,102146
2015-02-10T03:42:17.123Z,102143
2015-02-10T03:42:35.548Z,102146
2015-02-10T03:42:53.970Z,102152
2015-02-10T03:43:12.376Z,102149
2015-02-10T03:43:30.782Z,102146
2015-02-10T03:43:49.207Z,102155
2015-02-10T03:44:07.613Z,102146
2015-02-10T03:44:26.035Z,102155
2015-02-10T03:44:44.444Z,102155
2015-02-10T03:45:02.865Z,102155
2015-02-10T03:45:21.272Z,102149
2015-02-10T03:45:39.694Z,102155
2015-02-10T03:45:58.117Z,102152
2015-02-10T03:46:16.524Z,102161
2015-02-10T03:46:34.946Z,102146
2015-02-10T03:46:53.355Z,102161
2015-02-10T03:47:11.777Z,102161
2015-02-10T03:47:30.199Z,102161
2015-02-10T03:47:48.605Z,102155
2015-02-10T03:48:07.030Z,102158
2015-02-10T03:48:25.436Z,102167
2015-02-10T03:48:43.858Z,102155
2015-02-10T03:49:02.266Z,102146
2015-02-10T03:49:20.704Z,102152
2015-02-10T03:49:39.110Z,102149